Finningley, United Kingdom
Current Conditions -  °F | °C
As of 10:50 AM on Saturday 22 Nov 2014 (Local Time) from EGCN Reporting Station
Overcast Overcast  
Wind Chill: 55°   Ceiling: 1300
Heat Index: 55°   Visibility: 4mi
Dew Point: 54°   Wind: 7mph
Humidity: 94%   Direction: 170°S
Pressure: 29.85"   Gusts: NA
Location:  53.49°N, 0.99°W
Report Text: EGCN 221050Z 17006KT 6000 SCT007 OVC013 13/12 Q1011
Loading
Personal Weather Stations






























Interactive Weather Map New forecast layout! Learn more

10-Day Weather Forecast

Advertisements
Track Severe Weather on mobile